sensor_id;sensor_type;location;lat;lon;timestamp;pressure;altitude;pressure_sealevel;temperature;humidity
29433;BME280;16405;53.964;13.448;2023-03-04T00:00:23;101159.00;;;2.70;100.00
29433;BME280;16405;53.964;13.448;2023-03-04T00:02:48;101166.75;;;2.74;100.00
29433;BME280;16405;53.964;13.448;2023-03-04T00:05:14;101164.16;;;2.74;100.00
29433;BME280;16405;53.964;13.448;2023-03-04T00:07:40;101160.69;;;2.74;100.00
29433;BME280;16405;53.964;13.448;2023-03-04T00:10:06;101162.41;;;2.76;100.00
29433;BME280;16405;53.964;13.448;2023-03-04T00:12:32;101162.41;;;2.78;100.00
29433;BME280;16405;53.964;13.448;2023-03-04T00:14:58;101160.69;;;2.77;100.00
29433;BME280;16405;53.964;13.448;2023-03-04T00:17:24;101153.75;;;2.79;100.00
29433;BME280;16405;53.964;13.448;2023-03-04T00:19:50;101151.97;;;2.84;100.00
29433;BME280;16405;53.964;13.448;2023-03-04T00:22:15;101143.25;;;2.88;100.00
29433;BME280;16405;53.964;13.448;2023-03-04T00:24:41;101149.28;;;2.93;100.00
29433;BME280;16405;53.964;13.448;2023-03-04T00:27:07;101145.00;;;2.86;100.00
29433;BME280;16405;53.964;13.448;2023-03-04T00:29:33;101148.41;;;2.94;100.00
29433;BME280;16405;53.964;13.448;2023-03-04T00:31:59;101137.13;;;2.95;100.00
29433;BME280;16405;53.964;13.448;2023-03-04T00:34:27;101149.22;;;2.98;100.00
29433;BME280;16405;53.964;13.448;2023-03-04T00:36:53;101143.13;;;3.03;100.00
29433;BME280;16405;53.964;13.448;2023-03-04T00:39:19;101148.38;;;2.97;100.00
29433;BME280;16405;53.964;13.448;2023-03-04T00:41:45;101140.56;;;2.97;100.00
29433;BME280;16405;53.964;13.448;2023-03-04T00:44:11;101144.88;;;3.01;100.00
29433;BME280;16405;53.964;13.448;2023-03-04T00:46:37;101137.91;;;3.03;100.00
29433;BME280;16405;53.964;13.448;2023-03-04T00:49:05;101133.56;;;3.07;100.00
29433;BME280;16405;53.964;13.448;2023-03-04T00:51:31;101131.84;;;3.03;100.00
29433;BME280;16405;53.964;13.448;2023-03-04T00:53:57;101125.75;;;3.05;100.00
29433;BME280;16405;53.964;13.448;2023-03-04T00:56:22;101121.41;;;3.07;100.00
29433;BME280;16405;53.964;13.448;2023-03-04T00:58:48;101124.03;;;3.04;100.00
29433;BME280;16405;53.964;13.448;2023-03-04T01:01:14;101130.09;;;3.05;100.00
29433;BME280;16405;53.964;13.448;2023-03-04T01:03:40;101114.50;;;3.05;100.00
29433;BME280;16405;53.964;13.448;2023-03-04T01:06:07;101113.59;;;3.07;100.00
29433;BME280;16405;53.964;13.448;2023-03-04T01:08:33;101107.53;;;3.05;100.00
29433;BME280;16405;53.964;13.448;2023-03-04T01:10:59;101104.03;;;3.10;100.00
29433;BME280;16405;53.964;13.448;2023-03-04T01:13:24;101107.44;;;3.15;100.00
29433;BME280;16405;53.964;13.448;2023-03-04T01:15:50;101100.59;;;3.09;100.00
29433;BME280;16405;53.964;13.448;2023-03-04T01:18:16;101098.00;;;3.07;100.00
29433;BME280;16405;53.964;13.448;2023-03-04T01:20:42;101092.75;;;3.11;100.00
29433;BME280;16405;53.964;13.448;2023-03-04T01:23:08;101103.16;;;3.11;100.00
29433;BME280;16405;53.964;13.448;2023-03-04T01:25:33;101091.00;;;3.13;100.00
29433;BME280;16405;53.964;13.448;2023-03-04T01:27:59;101091.03;;;3.10;100.00
29433;BME280;16405;53.964;13.448;2023-03-04T01:30:25;101082.38;;;3.09;100.00
29433;BME280;16405;53.964;13.448;2023-03-04T01:32:51;101085.81;;;3.10;100.00
29433;BME280;16405;53.964;13.448;2023-03-04T01:35:19;101070.19;;;3.13;100.00
29433;BME280;16405;53.964;13.448;2023-03-04T01:37:45;101078.03;;;3.11;100.00
29433;BME280;16405;53.964;13.448;2023-03-04T01:40:12;101070.19;;;3.13;100.00
29433;BME280;16405;53.964;13.448;2023-03-04T01:42:38;101076.22;;;3.18;100.00
29433;BME280;16405;53.964;13.448;2023-03-04T01:45:05;101071.06;;;3.08;100.00
29433;BME280;16405;53.964;13.448;2023-03-04T01:47:34;101075.44;;;3.08;100.00
29433;BME280;16405;53.964;13.448;2023-03-04T01:50:04;101071.88;;;3.18;100.00
29433;BME280;16405;53.964;13.448;2023-03-04T01:52:36;101064.84;;;3.25;100.00
29433;BME280;16405;53.964;13.448;2023-03-04T01:55:19;101070.09;;;3.22;100.00
29433;BME280;16405;53.964;13.448;2023-03-04T01:57:48;101064.00;;;3.21;100.00
29433;BME280;16405;53.964;13.448;2023-03-04T02:00:30;101059.69;;;3.19;100.00
29433;BME280;16405;53.964;13.448;2023-03-04T02:03:09;101049.28;;;3.22;100.00
29433;BME280;16405;53.964;13.448;2023-03-04T02:05:40;101048.38;;;3.21;100.00
29433;BME280;16405;53.964;13.448;2023-03-04T02:08:08;101049.22;;;3.25;100.00
29433;BME280;16405;53.964;13.448;2023-03-04T02:10:35;101056.13;;;3.29;100.00
29433;BME280;16405;53.964;13.448;2023-03-04T02:13:02;101054.44;;;3.25;100.00
29433;BME280;16405;53.964;13.448;2023-03-04T02:15:29;101047.53;;;3.19;100.00
29433;BME280;16405;53.964;13.448;2023-03-04T02:17:55;101047.53;;;3.21;100.00
29433;BME280;16405;53.964;13.448;2023-03-04T02:26:19;101046.56;;;3.33;100.00
29433;BME280;16405;53.964;13.448;2023-03-04T02:28:48;101042.16;;;3.35;100.00
29433;BME280;16405;53.964;13.448;2023-03-04T02:33:51;101044.81;;;3.33;100.00
29433;BME280;16405;53.964;13.448;2023-03-04T02:36:20;101033.56;;;3.31;100.00
29433;BME280;16405;53.964;13.448;2023-03-04T02:38:47;101042.16;;;3.36;100.00
29433;BME280;16405;53.964;13.448;2023-03-04T02:41:16;101033.47;;;3.37;100.00
29433;BME280;16405;53.964;13.448;2023-03-04T02:43:52;101036.03;;;3.39;100.00
29433;BME280;16405;53.964;13.448;2023-03-04T02:46:19;101037.81;;;3.37;100.00
29433;BME280;16405;53.964;13.448;2023-03-04T02:48:45;101026.59;;;3.30;100.00
29433;BME280;16405;53.964;13.448;2023-03-04T02:51:13;101017.94;;;3.31;100.00
29433;BME280;16405;53.964;13.448;2023-03-04T02:53:39;101013.50;;;3.38;100.00
29433;BME280;16405;53.964;13.448;2023-03-04T02:56:05;101027.38;;;3.41;100.00
29433;BME280;16405;53.964;13.448;2023-03-04T02:58:31;101015.16;;;3.43;100.00
29433;BME280;16405;53.964;13.448;2023-03-04T03:00:57;101012.56;;;3.43;100.00
29433;BME280;16405;53.964;13.448;2023-03-04T03:03:23;101011.75;;;3.38;100.00
29433;BME280;16405;53.964;13.448;2023-03-04T03:05:50;101000.44;;;3.42;100.00
29433;BME280;16405;53.964;13.448;2023-03-04T03:08:16;101007.41;;;3.40;100.00
29433;BME280;16405;53.964;13.448;2023-03-04T03:10:41;101001.34;;;3.40;100.00
29433;BME280;16405;53.964;13.448;2023-03-04T03:13:07;101007.41;;;3.40;100.00
29433;BME280;16405;53.964;13.448;2023-03-04T03:15:33;100997.91;;;3.38;100.00
29433;BME280;16405;53.964;13.448;2023-03-04T03:17:59;101006.56;;;3.37;100.00
29433;BME280;16405;53.964;13.448;2023-03-04T03:20:25;100997.03;;;3.37;100.00
29433;BME280;16405;53.964;13.448;2023-03-04T03:22:51;100997.91;;;3.36;100.00
29433;BME280;16405;53.964;13.448;2023-03-04T03:25:16;100999.59;;;3.40;100.00
29433;BME280;16405;53.964;13.448;2023-03-04T03:27:42;100988.31;;;3.41;100.00
29433;BME280;16405;53.964;13.448;2023-03-04T03:30:13;100999.53;;;3.45;100.00
29433;BME280;16405;53.964;13.448;2023-03-04T03:32:40;100992.63;;;3.44;100.00
29433;BME280;16405;53.964;13.448;2023-03-04T03:35:06;100996.09;;;3.43;100.00
29433;BME280;16405;53.964;13.448;2023-03-04T03:37:32;100997.88;;;3.39;100.00
29433;BME280;16405;53.964;13.448;2023-03-04T03:39:57;100995.31;;;3.36;100.00
29433;BME280;16405;53.964;13.448;2023-03-04T03:42:23;100989.22;;;3.37;100.00
29433;BME280;16405;53.964;13.448;2023-03-04T03:44:51;100988.34;;;3.38;100.00
29433;BME280;16405;53.964;13.448;2023-03-04T03:47:17;100984.88;;;3.39;100.00
29433;BME280;16405;53.964;13.448;2023-03-04T03:49:43;100978.78;;;3.40;100.00
29433;BME280;16405;53.964;13.448;2023-03-04T03:52:09;100989.19;;;3.40;100.00
29433;BME280;16405;53.964;13.448;2023-03-04T03:54:34;100977.00;;;3.42;100.00
29433;BME280;16405;53.964;13.448;2023-03-04T03:57:01;100983.97;;;3.39;100.00
29433;BME280;16405;53.964;13.448;2023-03-04T03:59:27;100978.81;;;3.37;100.00
29433;BME280;16405;53.964;13.448;2023-03-04T04:01:52;100979.66;;;3.39;100.00
29433;BME280;16405;53.964;13.448;2023-03-04T04:04:21;100975.34;;;3.37;100.00
29433;BME280;16405;53.964;13.448;2023-03-04T04:06:47;100969.25;;;3.39;100.00
29433;BME280;16405;53.964;13.448;2023-03-04T04:09:13;100968.34;;;3.40;100.00
29433;BME280;16405;53.964;13.448;2023-03-04T04:11:38;100974.41;;;3.42;100.00
29433;BME280;16405;53.964;13.448;2023-03-04T04:14:04;100970.03;;;3.46;100.00
29433;BME280;16405;53.964;13.448;2023-03-04T04:16:30;100969.91;;;3.54;100.00
29433;BME280;16405;53.964;13.448;2023-03-04T04:18:56;100971.59;;;3.56;100.00
29433;BME280;16405;53.964;13.448;2023-03-04T04:21:24;100974.25;;;3.55;100.00
29433;BME280;16405;53.964;13.448;2023-03-04T04:23:50;100965.53;;;3.56;100.00
29433;BME280;16405;53.964;13.448;2023-03-04T04:26:16;100966.44;;;3.53;100.00
29433;BME280;16405;53.964;13.448;2023-03-04T04:28:42;100970.72;;;3.59;100.00
29433;BME280;16405;53.964;13.448;2023-03-04T04:31:08;100968.16;;;3.56;100.00
29433;BME280;16405;53.964;13.448;2023-03-04T04:33:35;100954.25;;;3.57;100.00
29433;BME280;16405;53.964;13.448;2023-03-04T04:36:01;100965.53;;;3.56;100.00
29433;BME280;16405;53.964;13.448;2023-03-04T04:38:29;100957.72;;;3.57;100.00
29433;BME280;16405;53.964;13.448;2023-03-04T04:40:57;100956.88;;;3.55;100.00
29433;BME280;16405;53.964;13.448;2023-03-04T04:43:24;100962.06;;;3.57;100.00
29433;BME280;16405;53.964;13.448;2023-03-04T04:45:50;100965.56;;;3.54;100.00
29433;BME280;16405;53.964;13.448;2023-03-04T04:48:16;100965.53;;;3.57;100.00
29433;BME280;16405;53.964;13.448;2023-03-04T04:50:42;100958.56;;;3.58;100.00
29433;BME280;16405;53.964;13.448;2023-03-04T04:53:11;100961.16;;;3.61;100.00
29433;BME280;16405;53.964;13.448;2023-03-04T04:55:38;100955.13;;;3.56;100.00
29433;BME280;16405;53.964;13.448;2023-03-04T04:58:06;100962.91;;;3.59;100.00
29433;BME280;16405;53.964;13.448;2023-03-04T05:00:32;100962.91;;;3.59;100.00
29433;BME280;16405;53.964;13.448;2023-03-04T05:02:58;100951.66;;;3.57;100.00
29433;BME280;16405;53.964;13.448;2023-03-04T05:05:23;100954.19;;;3.60;100.00
29433;BME280;16405;53.964;13.448;2023-03-04T05:07:49;100955.09;;;3.59;100.00
29433;BME280;16405;53.964;13.448;2023-03-04T05:10:15;100962.00;;;3.61;100.00
29433;BME280;16405;53.964;13.448;2023-03-04T05:12:43;100958.50;;;3.62;100.00
29433;BME280;16405;53.964;13.448;2023-03-04T05:15:10;100956.78;;;3.63;100.00
29433;BME280;16405;53.964;13.448;2023-03-04T05:17:36;100951.66;;;3.57;100.00
29433;BME280;16405;53.964;13.448;2023-03-04T05:20:02;100955.94;;;3.61;100.00
29433;BME280;16405;53.964;13.448;2023-03-04T05:22:31;100954.19;;;3.60;100.00
29433;BME280;16405;53.964;13.448;2023-03-04T05:24:57;100946.38;;;3.61;100.00
29433;BME280;16405;53.964;13.448;2023-03-04T05:27:23;100952.50;;;3.59;100.00
29433;BME280;16405;53.964;13.448;2023-03-04T05:29:49;100958.53;;;3.61;100.00
29433;BME280;16405;53.964;13.448;2023-03-04T05:32:15;100944.63;;;3.60;100.00
29433;BME280;16405;53.964;13.448;2023-03-04T05:34:40;100948.16;;;3.59;100.00
29433;BME280;16405;53.964;13.448;2023-03-04T05:37:06;100952.50;;;3.59;100.00
29433;BME280;16405;53.964;13.448;2023-03-04T05:39:32;100948.97;;;3.63;100.00
29433;BME280;16405;53.964;13.448;2023-03-04T05:41:58;100949.00;;;3.58;100.00
29433;BME280;16405;53.964;13.448;2023-03-04T05:44:23;100951.59;;;3.60;100.00
29433;BME280;16405;53.964;13.448;2023-03-04T05:46:49;100962.00;;;3.61;100.00
29433;BME280;16405;53.964;13.448;2023-03-04T05:49:15;100958.56;;;3.59;100.00
29433;BME280;16405;53.964;13.448;2023-03-04T05:51:41;100951.66;;;3.57;100.00
29433;BME280;16405;53.964;13.448;2023-03-04T05:54:06;100958.56;;;3.59;100.00
29433;BME280;16405;53.964;13.448;2023-03-04T05:56:32;100943.78;;;3.60;100.00
29433;BME280;16405;53.964;13.448;2023-03-04T05:58:59;100955.09;;;3.59;100.00
29433;BME280;16405;53.964;13.448;2023-03-04T06:01:25;100957.72;;;3.57;100.00
29433;BME280;16405;53.964;13.448;2023-03-04T06:03:51;100961.19;;;3.58;100.00
29433;BME280;16405;53.964;13.448;2023-03-04T06:06:17;100953.38;;;3.58;100.00
29433;BME280;16405;53.964;13.448;2023-03-04T06:08:43;100963.78;;;3.58;99.98
29433;BME280;16405;53.964;13.448;2023-03-04T06:11:09;100964.69;;;3.54;99.30
29433;BME280;16405;53.964;13.448;2023-03-04T06:13:35;100969.91;;;3.55;98.81
29433;BME280;16405;53.964;13.448;2023-03-04T06:16:06;100964.69;;;3.54;98.03
29433;BME280;16405;53.964;13.448;2023-03-04T06:18:32;100967.34;;;3.52;97.45
29433;BME280;16405;53.964;13.448;2023-03-04T06:21:01;100964.75;;;3.51;96.55
29433;BME280;16405;53.964;13.448;2023-03-04T06:23:32;100962.16;;;3.49;96.17
29433;BME280;16405;53.964;13.448;2023-03-04T06:25:59;100965.63;;;3.49;96.44
29433;BME280;16405;53.964;13.448;2023-03-04T06:28:26;100972.56;;;3.51;95.96
29433;BME280;16405;53.964;13.448;2023-03-04T06:30:53;100973.38;;;3.54;95.96
29433;BME280;16405;53.964;13.448;2023-03-04T06:33:20;100979.47;;;3.55;96.02
29433;BME280;16405;53.964;13.448;2023-03-04T06:35:46;100983.81;;;3.53;95.94
29433;BME280;16405;53.964;13.448;2023-03-04T06:38:14;100969.19;;;3.44;96.19
29433;BME280;16405;53.964;13.448;2023-03-04T06:40:40;100980.44;;;3.46;96.24
29433;BME280;16405;53.964;13.448;2023-03-04T06:43:06;100982.16;;;3.45;96.50
29433;BME280;16405;53.964;13.448;2023-03-04T06:45:32;100977.84;;;3.44;96.59
29433;BME280;16405;53.964;13.448;2023-03-04T06:47:57;100977.00;;;3.42;96.20
29433;BME280;16405;53.964;13.448;2023-03-04T06:50:23;100996.91;;;3.46;96.29
29433;BME280;16405;53.964;13.448;2023-03-04T06:52:49;100988.19;;;3.51;95.99
29433;BME280;16405;53.964;13.448;2023-03-04T06:55:15;100988.19;;;3.49;95.90
29433;BME280;16405;53.964;13.448;2023-03-04T06:57:41;100985.66;;;3.44;95.83
29433;BME280;16405;53.964;13.448;2023-03-04T07:00:09;100988.31;;;3.41;96.08
29433;BME280;16405;53.964;13.448;2023-03-04T07:02:35;100991.72;;;3.43;96.03
29433;BME280;16405;53.964;13.448;2023-03-04T07:05:01;100996.00;;;3.49;96.06
29433;BME280;16405;53.964;13.448;2023-03-04T07:07:27;100992.56;;;3.47;95.95
29433;BME280;16405;53.964;13.448;2023-03-04T07:09:53;100998.63;;;3.47;95.74
29433;BME280;16405;53.964;13.448;2023-03-04T07:12:19;100998.63;;;3.47;95.53
29433;BME280;16405;53.964;13.448;2023-03-04T07:14:47;100989.91;;;3.52;95.59
29433;BME280;16405;53.964;13.448;2023-03-04T07:17:13;101002.97;;;3.47;95.08
29433;BME280;16405;53.964;13.448;2023-03-04T07:19:39;101003.81;;;3.51;95.38
29433;BME280;16405;53.964;13.448;2023-03-04T07:22:06;100994.19;;;3.54;95.46
29433;BME280;16405;53.964;13.448;2023-03-04T07:24:32;100997.69;;;3.53;95.52
29433;BME280;16405;53.964;13.448;2023-03-04T07:26:58;101007.25;;;3.53;95.42
29433;BME280;16405;53.964;13.448;2023-03-04T07:29:24;100997.63;;;3.56;95.23
29433;BME280;16405;53.964;13.448;2023-03-04T07:31:50;101004.53;;;3.60;94.90
29433;BME280;16405;53.964;13.448;2023-03-04T07:34:15;100995.00;;;3.61;95.32
29433;BME280;16405;53.964;13.448;2023-03-04T07:36:41;101001.94;;;3.60;94.84
29433;BME280;16405;53.964;13.448;2023-03-04T07:39:09;101009.78;;;3.59;94.73
29433;BME280;16405;53.964;13.448;2023-03-04T07:41:35;101007.19;;;3.59;94.73
29433;BME280;16405;53.964;13.448;2023-03-04T07:44:05;101008.03;;;3.59;94.70
29433;BME280;16405;53.964;13.448;2023-03-04T07:46:32;101012.34;;;3.60;94.54
29433;BME280;16405;53.964;13.448;2023-03-04T07:48:58;101017.53;;;3.62;94.43
29433;BME280;16405;53.964;13.448;2023-03-04T07:51:26;101010.56;;;3.64;94.46
29433;BME280;16405;53.964;13.448;2023-03-04T07:53:56;101014.88;;;3.66;94.44
29433;BME280;16405;53.964;13.448;2023-03-04T07:56:27;101014.88;;;3.66;94.59
29433;BME280;16405;53.964;13.448;2023-03-04T07:58:53;101017.41;;;3.71;94.08
29433;BME280;16405;53.964;13.448;2023-03-04T08:01:24;101012.09;;;3.80;94.00
29433;BME280;16405;53.964;13.448;2023-03-04T08:03:51;101011.09;;;3.89;93.76
29433;BME280;16405;53.964;13.448;2023-03-04T08:06:18;101016.25;;;3.94;93.37
29433;BME280;16405;53.964;13.448;2023-03-04T08:08:45;101011.06;;;3.90;93.15
29433;BME280;16405;53.964;13.448;2023-03-04T08:11:18;101008.44;;;3.90;92.92
29433;BME280;16405;53.964;13.448;2023-03-04T08:13:45;101011.06;;;3.90;92.96
29433;BME280;16405;53.964;13.448;2023-03-04T08:16:13;101011.88;;;3.94;92.63
29433;BME280;16405;53.964;13.448;2023-03-04T08:18:49;101016.19;;;3.95;92.91
29433;BME280;16405;53.964;13.448;2023-03-04T08:21:17;101012.81;;;3.88;92.42
29433;BME280;16405;53.964;13.448;2023-03-04T08:23:46;100997.94;;;3.97;92.51
29433;BME280;16405;53.964;13.448;2023-03-04T08:26:20;101010.03;;;4.01;92.12
29433;BME280;16405;53.964;13.448;2023-03-04T08:28:46;101005.72;;;4.00;92.31
29433;BME280;16405;53.964;13.448;2023-03-04T08:31:14;101014.41;;;3.99;92.46
29433;BME280;16405;53.964;13.448;2023-03-04T08:33:44;101013.50;;;4.01;92.21
29433;BME280;16405;53.964;13.448;2023-03-04T08:36:10;101007.38;;;4.05;92.08
29433;BME280;16405;53.964;13.448;2023-03-04T08:38:36;101011.72;;;4.05;92.31
29433;BME280;16405;53.964;13.448;2023-03-04T08:41:02;101018.53;;;4.15;92.46
29433;BME280;16405;53.964;13.448;2023-03-04T08:43:29;101020.19;;;4.19;92.41
29433;BME280;16405;53.964;13.448;2023-03-04T08:45:57;101020.16;;;4.22;92.07
29433;BME280;16405;53.964;13.448;2023-03-04T08:48:24;101028.88;;;4.20;91.68
29433;BME280;16405;53.964;13.448;2023-03-04T08:50:51;101021.97;;;4.17;91.81
29433;BME280;16405;53.964;13.448;2023-03-04T08:53:18;101025.53;;;4.11;91.22
29433;BME280;16405;53.964;13.448;2023-03-04T08:55:45;101025.44;;;4.16;91.31
29433;BME280;16405;53.964;13.448;2023-03-04T08:58:11;101024.66;;;4.11;90.76
29433;BME280;16405;53.964;13.448;2023-03-04T09:00:41;101036.88;;;4.06;90.51
29433;BME280;16405;53.964;13.448;2023-03-04T09:03:09;101030.81;;;4.07;90.33
29433;BME280;16405;53.964;13.448;2023-03-04T09:05:36;101044.59;;;4.15;91.04
29433;BME280;16405;53.964;13.448;2023-03-04T09:08:02;101041.00;;;4.22;90.88
29433;BME280;16405;53.964;13.448;2023-03-04T09:10:28;101038.41;;;4.21;91.02
29433;BME280;16405;53.964;13.448;2023-03-04T09:12:58;101038.44;;;4.19;90.79
29433;BME280;16405;53.964;13.448;2023-03-04T09:15:29;101041.84;;;4.23;90.47
29433;BME280;16405;53.964;13.448;2023-03-04T09:18:06;101045.28;;;4.28;90.87
29433;BME280;16405;53.964;13.448;2023-03-04T09:20:32;101043.66;;;4.19;90.28
29433;BME280;16405;53.964;13.448;2023-03-04T09:23:00;101048.81;;;4.22;90.26
29433;BME280;16405;53.964;13.448;2023-03-04T09:25:27;101052.94;;;4.36;90.39
29433;BME280;16405;53.964;13.448;2023-03-04T09:27:56;101053.94;;;4.28;90.07
29433;BME280;16405;53.964;13.448;2023-03-04T09:30:22;101054.78;;;4.29;90.16
29433;BME280;16405;53.964;13.448;2023-03-04T09:32:48;101060.78;;;4.36;90.16
29433;BME280;16405;53.964;13.448;2023-03-04T09:35:14;101059.91;;;4.35;89.99
29433;BME280;16405;53.964;13.448;2023-03-04T09:37:43;101080.75;;;4.37;90.39
29433;BME280;16405;53.964;13.448;2023-03-04T09:40:20;101073.13;;;4.24;89.90
29433;BME280;16405;53.964;13.448;2023-03-04T09:43:03;101076.56;;;4.25;90.75
29433;BME280;16405;53.964;13.448;2023-03-04T09:45:40;101068.00;;;4.17;90.59
29433;BME280;16405;53.964;13.448;2023-03-04T09:48:14;101067.16;;;4.15;90.87
29433;BME280;16405;53.964;13.448;2023-03-04T09:57:47;101076.78;;;4.11;93.02
29433;BME280;16405;53.964;13.448;2023-03-04T10:00:39;101073.41;;;4.04;92.31
29433;BME280;16405;53.964;13.448;2023-03-04T10:03:18;101082.19;;;3.97;92.25
29433;BME280;16405;53.964;13.448;2023-03-04T10:06:06;101078.69;;;4.00;91.90
29433;BME280;16405;53.964;13.448;2023-03-04T10:19:48;101090.25;;;3.77;91.21
29433;BME280;16405;53.964;13.448;2023-03-04T10:22:44;101092.00;;;3.77;91.87
29433;BME280;16405;53.964;13.448;2023-03-04T10:25:34;101099.88;;;3.72;91.78
29433;BME280;16405;53.964;13.448;2023-03-04T10:28:23;101103.41;;;3.69;92.57
29433;BME280;16405;53.964;13.448;2023-03-04T10:33:44;101107.69;;;3.72;92.55
29433;BME280;16405;53.964;13.448;2023-03-04T10:39:11;101100.75;;;3.73;93.06
29433;BME280;16405;53.964;13.448;2023-03-04T10:41:44;101101.31;;;3.95;92.76
29433;BME280;16405;53.964;13.448;2023-03-04T10:46:41;101111.22;;;4.31;91.23
29433;BME280;16405;53.964;13.448;2023-03-04T10:49:12;101117.97;;;4.45;89.83
29433;BME280;16405;53.964;13.448;2023-03-04T10:51:45;101122.25;;;4.50;89.09
29433;BME280;16405;53.964;13.448;2023-03-04T10:54:45;101122.16;;;4.58;88.19
29433;BME280;16405;53.964;13.448;2023-03-04T10:57:32;101127.56;;;4.44;87.96
29433;BME280;16405;53.964;13.448;2023-03-04T11:00:29;101135.28;;;4.52;88.37
29433;BME280;16405;53.964;13.448;2023-03-04T11:03:35;101124.84;;;4.52;87.89
29433;BME280;16405;53.964;13.448;2023-03-04T11:06:27;101129.13;;;4.56;87.99
29433;BME280;16405;53.964;13.448;2023-03-04T11:08:58;101126.53;;;4.56;87.52
29433;BME280;16405;53.964;13.448;2023-03-04T11:11:37;101131.31;;;4.84;87.69
29433;BME280;16405;53.964;13.448;2023-03-04T11:14:43;101132.97;;;4.88;87.79
29433;BME280;16405;53.964;13.448;2023-03-04T11:17:25;101124.84;;;5.06;87.50
29433;BME280;16405;53.964;13.448;2023-03-04T11:23:12;101144.03;;;5.50;86.71
29433;BME280;16405;53.964;13.448;2023-03-04T11:25:49;101143.50;;;5.80;84.62
29433;BME280;16405;53.964;13.448;2023-03-04T11:28:33;101143.50;;;5.78;82.81
29433;BME280;16405;53.964;13.448;2023-03-04T11:31:13;101148.94;;;5.69;82.42
29433;BME280;16405;53.964;13.448;2023-03-04T11:33:54;101144.56;;;5.68;81.42
29433;BME280;16405;53.964;13.448;2023-03-04T11:36:53;101149.28;;;5.95;81.08
29433;BME280;16405;53.964;13.448;2023-03-04T11:39:36;101150.81;;;6.07;80.68
29433;BME280;16405;53.964;13.448;2023-03-04T11:42:39;101168.41;;;5.98;79.91
29433;BME280;16405;53.964;13.448;2023-03-04T11:45:03;101169.75;;;5.73;75.83
29433;BME280;16405;53.964;13.448;2023-03-04T11:47:54;101164.38;;;5.81;74.41
29433;BME280;16405;53.964;13.448;2023-03-04T11:50:47;101153.44;;;5.59;72.03
29433;BME280;16405;53.964;13.448;2023-03-04T11:56:35;101151.38;;;5.31;69.95
29433;BME280;16405;53.964;13.448;2023-03-04T12:02:17;101159.44;;;5.18;69.92
29433;BME280;16405;53.964;13.448;2023-03-04T12:22:43;101172.31;;;5.75;64.75
29433;BME280;16405;53.964;13.448;2023-03-04T12:28:41;101174.16;;;5.70;62.39
29433;BME280;16405;53.964;13.448;2023-03-04T12:37:28;101171.88;;;5.03;60.99
29433;BME280;16405;53.964;13.448;2023-03-04T12:45:46;101177.47;;;4.79;60.63
29433;BME280;16405;53.964;13.448;2023-03-04T12:48:36;101192.28;;;4.78;61.12
29433;BME280;16405;53.964;13.448;2023-03-04T12:52:14;101185.69;;;4.52;60.41
29433;BME280;16405;53.964;13.448;2023-03-04T12:54:40;101190.59;;;4.72;61.79
29433;BME280;16405;53.964;13.448;2023-03-04T12:57:18;101186.91;;;4.87;61.87
29433;BME280;16405;53.964;13.448;2023-03-04T13:08:47;101202.03;;;4.64;59.87
29433;BME280;16405;53.964;13.448;2023-03-04T13:11:50;101193.22;;;4.72;60.99
29433;BME280;16405;53.964;13.448;2023-03-04T13:16:51;101196.72;;;5.26;59.67
29433;BME280;16405;53.964;13.448;2023-03-04T13:25:47;101201.28;;;4.57;60.79
29433;BME280;16405;53.964;13.448;2023-03-04T13:28:29;101203.84;;;4.60;62.95
29433;BME280;16405;53.964;13.448;2023-03-04T13:41:18;101206.41;;;4.63;64.38
29433;BME280;16405;53.964;13.448;2023-03-04T13:43:55;101213.31;;;4.66;63.07
29433;BME280;16405;53.964;13.448;2023-03-04T13:51:39;101201.91;;;4.08;63.60
29433;BME280;16405;53.964;13.448;2023-03-04T13:56:47;101194.66;;;3.57;64.47
29433;BME280;16405;53.964;13.448;2023-03-04T13:59:45;101199.03;;;3.57;65.39
29433;BME280;16405;53.964;13.448;2023-03-04T14:02:19;101198.69;;;3.84;65.74
29433;BME280;16405;53.964;13.448;2023-03-04T14:04:59;101194.88;;;4.16;64.53
29433;BME280;16405;53.964;13.448;2023-03-04T14:07:26;101195.41;;;4.43;63.16
29433;BME280;16405;53.964;13.448;2023-03-04T14:12:34;101215.38;;;4.42;58.58
29433;BME280;16405;53.964;13.448;2023-03-04T14:15:29;101218.59;;;4.61;58.54
29433;BME280;16405;53.964;13.448;2023-03-04T14:18:01;101206.34;;;4.68;57.46
29433;BME280;16405;53.964;13.448;2023-03-04T14:20:37;101227.41;;;4.52;57.64
29433;BME280;16405;53.964;13.448;2023-03-04T14:23:29;101223.25;;;4.41;55.49
29433;BME280;16405;53.964;13.448;2023-03-04T14:26:25;101232.63;;;4.52;55.36
29433;BME280;16405;53.964;13.448;2023-03-04T14:28:52;101219.03;;;4.27;55.03
29433;BME280;16405;53.964;13.448;2023-03-04T14:31:24;101232.91;;;4.29;54.53
29433;BME280;16405;53.964;13.448;2023-03-04T14:33:54;101231.09;;;4.38;53.69
29433;BME280;16405;53.964;13.448;2023-03-04T14:36:24;101232.84;;;4.34;53.30
29433;BME280;16405;53.964;13.448;2023-03-04T14:39:03;101233.75;;;4.33;53.50
29433;BME280;16405;53.964;13.448;2023-03-04T14:41:37;101235.66;;;4.20;52.94
29433;BME280;16405;53.964;13.448;2023-03-04T14:44:31;101234.84;;;4.15;53.50
29433;BME280;16405;53.964;13.448;2023-03-04T14:49:38;101236.69;;;4.04;52.62
29433;BME280;16405;53.964;13.448;2023-03-04T14:52:05;101232.38;;;4.03;52.93
29433;BME280;16405;53.964;13.448;2023-03-04T14:54:41;101231.47;;;4.05;54.02
29433;BME280;16405;53.964;13.448;2023-03-04T14:57:21;101230.56;;;4.08;55.08
29433;BME280;16405;53.964;13.448;2023-03-04T14:59:49;101231.59;;;3.98;53.87